createdAt,value
2023-01-12T00:01:52.681Z,98632.44
2023-01-12T00:04:19.613Z,98614.25
2023-01-12T00:06:46.186Z,98630.13
2023-01-12T00:09:12.707Z,98620.94
2023-01-12T00:11:39.910Z,98614.75
2023-01-12T00:14:08.153Z,98617.38
2023-01-12T00:16:35.055Z,98610.34
2023-01-12T00:19:03.345Z,98600.66
2023-01-12T00:21:32.971Z,98593.63
2023-01-12T00:23:59.466Z,98597.06
2023-01-12T00:26:25.925Z,98602.13
2023-01-12T00:28:52.358Z,98595.09
2023-01-12T00:31:18.848Z,98588.69
2023-01-12T00:33:45.331Z,98585.91
2023-01-12T00:36:13.829Z,98582.28
2023-01-12T00:38:40.299Z,98581.00
2023-01-12T00:41:08.527Z,98588.97
2023-01-12T00:43:53.862Z,98587.66
2023-01-12T00:46:29.578Z,98589.97
2023-01-12T00:48:56.011Z,98589.28
2023-01-12T00:51:22.419Z,98585.69
2023-01-12T00:53:48.867Z,98580.72
2023-01-12T00:56:15.353Z,98585.81
2023-01-12T00:58:41.871Z,98590.91
2023-01-12T01:01:09.106Z,98596.63
2023-01-12T01:03:36.024Z,98585.31
2023-01-12T01:06:07.173Z,98583.84
2023-01-12T01:08:36.815Z,98590.19
2023-01-12T01:11:11.647Z,98594.31
2023-01-12T01:13:43.685Z,98584.78
2023-01-12T01:16:13.096Z,98597.09
2023-01-12T01:18:40.131Z,98599.38
2023-01-12T01:21:09.112Z,98605.47
2023-01-12T01:23:36.685Z,98602.00
2023-01-12T01:26:08.559Z,98598.91
2023-01-12T01:28:36.867Z,98601.69
2023-01-12T01:31:11.779Z,98605.00
2023-01-12T01:33:38.371Z,98609.75
2023-01-12T01:36:05.547Z,98594.81
2023-01-12T01:38:33.104Z,98599.56
2023-01-12T01:40:59.911Z,98600.84
2023-01-12T01:43:27.561Z,98599.22
2023-01-12T01:46:06.691Z,98589.38
2023-01-12T01:48:36.711Z,98584.81
2023-01-12T01:51:09.031Z,98577.59
2023-01-12T01:53:39.783Z,98572.47
2023-01-12T01:56:11.499Z,98574.81
2023-01-12T01:58:46.788Z,98561.31
2023-01-12T02:01:13.523Z,98571.66
2023-01-12T02:03:41.073Z,98575.59
2023-01-12T02:06:08.925Z,98577.91
2023-01-12T02:08:57.467Z,98584.63
2023-01-12T02:11:44.065Z,98589.88
2023-01-12T02:14:29.273Z,98577.06
2023-01-12T02:17:04.572Z,98574.00
2023-01-12T02:20:06.304Z,98560.47
2023-01-12T02:22:56.869Z,98547.00
2023-01-12T02:25:35.384Z,98551.28
2023-01-12T02:28:23.930Z,98567.53
2023-01-12T02:31:18.401Z,98561.28
2023-01-12T02:33:47.532Z,98552.28
2023-01-12T02:36:33.891Z,98562.63
2023-01-12T02:39:15.256Z,98550.16
2023-01-12T02:42:20.118Z,98549.66
2023-01-12T02:45:01.323Z,98547.53
2023-01-12T02:47:37.655Z,98544.56
2023-01-12T02:50:09.633Z,98555.41
2023-01-12T02:52:36.141Z,98549.97
2023-01-12T02:55:04.637Z,98546.53
2023-01-12T02:57:33.181Z,98559.31
2023-01-12T03:00:01.306Z,98542.75
2023-01-12T03:02:28.886Z,98540.94
2023-01-12T03:04:55.344Z,98544.72
2023-01-12T03:07:35.887Z,98552.78
2023-01-12T03:10:23.664Z,98539.81
2023-01-12T03:12:51.544Z,98536.84
2023-01-12T03:15:20.067Z,98530.44
2023-01-12T03:17:59.445Z,98530.78
2023-01-12T03:20:30.807Z,98531.59
2023-01-12T03:23:09.354Z,98538.94
2023-01-12T03:25:37.954Z,98538.94
2023-01-12T03:28:08.242Z,98526.81
2023-01-12T03:30:38.752Z,98542.41
2023-01-12T03:33:07.329Z,98519.94
2023-01-12T03:36:12.464Z,98526.00
2023-01-12T03:39:36.195Z,98525.66
2023-01-12T03:42:29.567Z,98523.03
2023-01-12T03:45:23.997Z,98530.44
2023-01-12T03:47:56.083Z,98526.00
2023-01-12T03:50:28.714Z,98521.56
2023-01-12T03:52:56.635Z,98518.41
2023-01-12T03:55:26.318Z,98514.16
2023-01-12T03:57:53.875Z,98525.00
2023-01-12T04:00:22.561Z,98514.69
2023-01-12T04:02:49.022Z,98521.41
2023-01-12T04:05:16.544Z,98521.50
2023-01-12T04:07:43.001Z,98533.81
2023-01-12T04:10:09.996Z,98518.06
2023-01-12T04:12:36.457Z,98521.34
2023-01-12T04:15:03.063Z,98519.22
2023-01-12T04:17:29.562Z,98514.69
2023-01-12T04:19:56.062Z,98521.75
2023-01-12T04:22:40.880Z,98514.50
2023-01-12T04:25:09.620Z,98511.34
2023-01-12T04:27:36.830Z,98509.59
2023-01-12T04:30:04.421Z,98507.13
2023-01-12T04:32:30.841Z,98506.84
2023-01-12T04:34:57.283Z,98497.63
2023-01-12T04:37:23.746Z,98499.16
2023-01-12T04:39:50.172Z,98501.31
2023-01-12T04:42:35.344Z,98479.97
2023-01-12T04:45:01.965Z,98476.88
2023-01-12T04:47:28.427Z,98482.28
2023-01-12T04:49:54.910Z,98495.44
2023-01-12T04:52:21.459Z,98480.53
2023-01-12T04:54:47.875Z,98490.41
2023-01-12T04:57:14.347Z,98463.34
2023-01-12T04:59:40.782Z,98468.28
2023-01-12T05:02:07.475Z,98467.47
2023-01-12T05:04:34.060Z,98472.56
2023-01-12T05:07:00.526Z,98469.59
2023-01-12T05:09:45.485Z,98467.00
2023-01-12T05:12:12.070Z,98469.50
2023-01-12T05:14:38.528Z,98475.03
2023-01-12T05:17:05.098Z,98457.00
2023-01-12T05:19:31.550Z,98457.81
2023-01-12T05:21:58.006Z,98448.50
2023-01-12T05:24:24.445Z,98447.31
2023-01-12T05:26:50.931Z,98439.31
2023-01-12T05:29:17.407Z,98442.88
2023-01-12T05:31:43.851Z,98436.44
2023-01-12T05:34:10.341Z,98421.66
2023-01-12T05:36:36.808Z,98407.25
2023-01-12T05:39:04.483Z,98403.75
2023-01-12T05:41:31.055Z,98409.69
2023-01-12T05:43:57.511Z,98416.69
2023-01-12T05:46:40.074Z,98417.34
2023-01-12T05:49:06.702Z,98412.69
2023-01-12T05:51:33.122Z,98411.38
2023-01-12T05:53:59.605Z,98408.91
2023-01-12T05:56:27.956Z,98393.09
2023-01-12T05:59:00.940Z,98396.25
2023-01-12T06:01:29.049Z,98382.97
2023-01-12T06:03:57.762Z,98389.72
2023-01-12T06:06:26.113Z,98387.09
2023-01-12T06:08:53.444Z,98375.91
2023-01-12T06:11:39.634Z,98368.38
2023-01-12T06:14:06.976Z,98374.91
2023-01-12T06:16:36.430Z,98382.56
2023-01-12T06:19:02.902Z,98371.13
2023-01-12T06:21:29.388Z,98383.28
2023-01-12T06:23:55.825Z,98380.34
2023-01-12T06:26:22.262Z,98379.53
2023-01-12T06:28:48.734Z,98375.28
2023-01-12T06:31:15.527Z,98364.84
2023-01-12T06:33:42.613Z,98372.09
2023-01-12T06:36:10.024Z,98376.34
2023-01-12T06:38:37.388Z,98364.03
2023-01-12T06:41:29.565Z,98368.78
2023-01-12T06:43:57.056Z,98368.00
2023-01-12T06:46:23.928Z,98366.66
2023-01-12T06:48:50.432Z,98355.19
2023-01-12T06:51:16.881Z,98349.31
2023-01-12T06:53:43.313Z,98350.44
2023-01-12T06:56:09.752Z,98350.94
2023-01-12T06:58:36.278Z,98340.97
2023-01-12T07:01:04.452Z,98337.69
2023-01-12T07:03:30.956Z,98342.06
2023-01-12T07:06:01.119Z,98350.69
2023-01-12T07:08:27.671Z,98340.06
2023-01-12T07:10:54.175Z,98348.88
2023-01-12T07:13:20.790Z,98347.41
2023-01-12T07:15:47.299Z,98340.66
2023-01-12T07:18:13.711Z,98347.59
2023-01-12T07:20:40.146Z,98360.50
2023-01-12T07:23:06.553Z,98346.00
2023-01-12T07:25:33.016Z,98351.38
2023-01-12T07:27:59.487Z,98345.00
2023-01-12T07:30:27.469Z,98346.13
2023-01-12T07:32:54.222Z,98348.44
2023-01-12T07:35:21.646Z,98336.44
2023-01-12T07:37:50.002Z,98330.53
2023-01-12T07:40:17.096Z,98336.56
2023-01-12T07:42:43.705Z,98343.63
2023-01-12T07:45:11.079Z,98340.66
2023-01-12T07:47:37.782Z,98337.00
2023-01-12T07:50:04.813Z,98348.50
2023-01-12T07:52:31.353Z,98326.84
2023-01-12T07:54:58.194Z,98325.50
2023-01-12T07:57:24.751Z,98325.84
2023-01-12T07:59:51.199Z,98319.31
2023-01-12T08:02:19.243Z,98326.56
2023-01-12T08:04:47.055Z,98329.66
2023-01-12T08:07:15.078Z,98328.84
2023-01-12T08:09:41.807Z,98329.34
2023-01-12T08:12:08.486Z,98313.59
2023-01-12T08:14:37.201Z,98327.66
2023-01-12T08:17:08.174Z,98335.00
2023-01-12T08:19:43.809Z,98318.75
2023-01-12T08:22:18.987Z,98323.03
2023-01-12T08:24:52.124Z,98329.09
2023-01-12T08:27:22.437Z,98327.63
2023-01-12T08:29:52.927Z,98318.59
2023-01-12T08:32:19.527Z,98324.19
2023-01-12T08:34:51.305Z,98322.06
2023-01-12T08:37:22.034Z,98337.81
2023-01-12T08:39:49.249Z,98355.50
2023-01-12T08:42:15.759Z,98352.25
2023-01-12T08:44:42.619Z,98350.75
2023-01-12T08:47:19.878Z,98346.19
2023-01-12T08:49:46.571Z,98345.38
2023-01-12T08:52:15.035Z,98355.69
2023-01-12T08:54:41.666Z,98342.38
2023-01-12T08:57:08.206Z,98330.38
2023-01-12T08:59:34.887Z,98335.78
2023-01-12T09:02:01.525Z,98343.50
2023-01-12T09:04:28.596Z,98352.19
2023-01-12T09:06:55.714Z,98357.25
2023-01-12T09:09:22.723Z,98358.91
2023-01-12T09:11:49.478Z,98352.47
2023-01-12T09:14:16.789Z,98362.81
2023-01-12T09:16:43.876Z,98352.88
2023-01-12T09:19:10.972Z,98359.94
2023-01-12T09:21:40.348Z,98356.56
2023-01-12T09:24:07.724Z,98360.28
2023-01-12T09:26:43.234Z,98351.41
2023-01-12T09:29:11.434Z,98362.28
2023-01-12T09:31:39.946Z,98362.09
2023-01-12T09:34:06.462Z,98347.16
2023-01-12T09:36:34.951Z,98353.41
2023-01-12T09:39:02.093Z,98353.81
2023-01-12T09:41:49.417Z,98365.31
2023-01-12T09:44:52.151Z,98352.13
2023-01-12T09:47:32.935Z,98366.75
2023-01-12T09:50:09.026Z,98371.00
2023-01-12T09:52:44.781Z,98375.44
2023-01-12T09:55:16.315Z,98372.81
2023-01-12T09:58:27.190Z,98368.59
2023-01-12T10:00:59.372Z,98374.28
2023-01-12T10:03:35.473Z,98359.22
2023-01-12T10:06:02.468Z,98371.38
2023-01-12T10:08:38.998Z,98371.66
2023-01-12T10:11:11.760Z,98366.09
2023-01-12T10:14:04.449Z,98371.63
2023-01-12T10:16:39.997Z,98360.44
2023-01-12T10:19:19.402Z,98369.22
2023-01-12T10:21:47.142Z,98367.16
2023-01-12T10:24:13.805Z,98365.69
2023-01-12T10:26:45.818Z,98371.41
2023-01-12T10:29:12.555Z,98377.50
2023-01-12T10:31:39.137Z,98361.09
2023-01-12T10:34:11.881Z,98368.44
2023-01-12T10:36:49.049Z,98360.69
2023-01-12T10:39:33.841Z,98356.66
2023-01-12T10:42:32.507Z,98355.13
2023-01-12T10:45:24.777Z,98351.06
2023-01-12T10:47:56.123Z,98354.56
2023-01-12T10:50:32.754Z,98355.19
2023-01-12T10:53:06.140Z,98362.25
2023-01-12T10:55:36.626Z,98353.13
2023-01-12T10:58:03.587Z,98351.41
2023-01-12T11:00:30.607Z,98350.72
2023-01-12T11:02:57.331Z,98347.09
2023-01-12T11:05:26.561Z,98344.63
2023-01-12T11:07:53.630Z,98349.38
2023-01-12T11:10:32.180Z,98337.88
2023-01-12T11:13:04.314Z,98337.88
2023-01-12T11:15:35.547Z,98331.63
2023-01-12T11:18:28.109Z,98330.72
2023-01-12T11:21:01.943Z,98337.44
2023-01-12T11:23:36.702Z,98337.44
2023-01-12T11:26:15.575Z,98321.31
2023-01-12T11:28:47.405Z,98312.72
2023-01-12T11:31:25.754Z,98319.25
2023-01-12T11:34:00.039Z,98309.66
2023-01-12T11:36:32.767Z,98315.81
2023-01-12T11:39:04.718Z,98298.50
2023-01-12T11:41:37.737Z,98293.00
2023-01-12T11:44:30.722Z,98291.78
2023-01-12T11:47:05.782Z,98290.44
2023-01-12T11:50:11.152Z,98293.34
2023-01-12T11:52:37.861Z,98306.59
2023-01-12T11:55:04.688Z,98297.13
2023-01-12T11:57:52.914Z,98281.56
2023-01-12T12:00:31.355Z,98292.53
2023-01-12T12:03:26.056Z,98282.66
2023-01-12T12:06:02.826Z,98273.59
2023-01-12T12:09:17.471Z,98282.03
2023-01-12T12:12:04.290Z,98285.09
2023-01-12T12:14:52.730Z,98282.47
2023-01-12T12:17:32.755Z,98289.06
2023-01-12T12:20:12.684Z,98282.19
2023-01-12T12:23:11.613Z,98274.88
2023-01-12T12:25:50.526Z,98272.59
2023-01-12T12:28:35.291Z,98274.69
2023-01-12T12:31:07.991Z,98277.31
2023-01-12T12:34:07.728Z,98273.06
2023-01-12T12:36:42.289Z,98277.22
2023-01-12T12:39:25.746Z,98271.59
2023-01-12T12:42:33.471Z,98276.50
2023-01-12T12:45:17.449Z,98267.78
2023-01-12T12:47:58.082Z,98272.41
2023-01-12T12:50:34.159Z,98268.63
2023-01-12T12:53:26.409Z,98275.66
2023-01-12T12:55:57.188Z,98266.13
2023-01-12T12:58:23.550Z,98261.16
2023-01-12T13:00:51.084Z,98267.25
2023-01-12T13:03:39.650Z,98272.50
2023-01-12T13:06:31.040Z,98266.31
2023-01-12T13:08:59.864Z,98258.34
2023-01-12T13:12:14.665Z,98263.16
2023-01-12T13:14:43.086Z,98266.78
2023-01-12T13:17:18.589Z,98258.91
2023-01-12T13:20:24.621Z,98255.56
2023-01-12T13:22:52.048Z,98258.47
2023-01-12T13:25:19.416Z,98247.59
2023-01-12T13:27:55.489Z,98247.22
2023-01-12T13:30:28.060Z,98245.06
2023-01-12T13:33:15.818Z,98238.53
2023-01-12T13:35:45.739Z,98240.78
2023-01-12T13:38:47.944Z,98236.53
2023-01-12T13:41:14.563Z,98233.91
2023-01-12T13:43:45.258Z,98228.84
2023-01-12T13:46:20.345Z,98235.16
2023-01-12T13:48:49.899Z,98221.94
2023-01-12T13:51:29.190Z,98237.34
2023-01-12T13:54:04.935Z,98222.13
2023-01-12T13:56:32.121Z,98220.88
2023-01-12T13:59:01.950Z,98230.09
2023-01-12T14:01:38.732Z,98228.13
2023-01-12T14:04:14.406Z,98223.22
2023-01-12T14:06:55.977Z,98224.66
2023-01-12T14:09:28.089Z,98221.88
2023-01-12T14:12:33.607Z,98222.69
2023-01-12T14:15:46.176Z,98231.47
2023-01-12T14:18:18.851Z,98219.59
2023-01-12T14:20:50.890Z,98221.59
2023-01-12T14:23:23.906Z,98220.66
2023-01-12T14:26:09.204Z,98215.69
2023-01-12T14:28:44.360Z,98222.94
2023-01-12T14:31:25.102Z,98228.03
2023-01-12T14:33:57.426Z,98219.31
2023-01-12T14:36:50.075Z,98224.75
2023-01-12T14:39:20.638Z,98225.41
2023-01-12T14:42:08.109Z,98223.59
2023-01-12T14:44:57.399Z,98223.69
2023-01-12T14:47:29.574Z,98234.66
2023-01-12T14:49:55.986Z,98232.63
2023-01-12T14:52:30.233Z,98229.00
2023-01-12T14:55:27.412Z,98221.75
2023-01-12T14:57:57.402Z,98218.22
2023-01-12T15:00:26.740Z,98228.38
2023-01-12T15:02:58.548Z,98212.63
2023-01-12T15:05:27.027Z,98220.25
2023-01-12T15:08:19.551Z,98204.19
2023-01-12T15:11:09.259Z,98219.16
2023-01-12T15:13:37.786Z,98211.25
2023-01-12T15:16:23.964Z,98211.81
2023-01-12T15:19:08.969Z,98201.31
2023-01-12T15:21:55.915Z,98198.88
2023-01-12T15:24:52.927Z,98196.69
2023-01-12T15:27:22.641Z,98197.56
2023-01-12T15:29:49.096Z,98204.84
2023-01-12T15:32:38.077Z,98207.00
2023-01-12T15:35:17.768Z,98208.19
2023-01-12T15:37:44.322Z,98210.56
2023-01-12T15:40:14.105Z,98211.19
2023-01-12T15:42:40.984Z,98200.84
2023-01-12T15:45:40.968Z,98201.50
2023-01-12T15:48:08.613Z,98197.66
2023-01-12T15:50:37.760Z,98193.63
2023-01-12T15:53:10.806Z,98199.84
2023-01-12T15:55:38.931Z,98200.03
2023-01-12T15:58:05.471Z,98199.50
2023-01-12T16:00:31.959Z,98204.28
2023-01-12T16:02:58.497Z,98216.97
2023-01-12T16:05:26.372Z,98196.97
2023-01-12T16:07:53.237Z,98206.75
2023-01-12T16:10:20.519Z,98211.34
2023-01-12T16:12:50.332Z,98203.31
2023-01-12T16:15:18.375Z,98216.63
2023-01-12T16:17:45.279Z,98216.63
2023-01-12T16:20:13.003Z,98202.75
2023-01-12T16:22:39.484Z,98204.69
2023-01-12T16:25:07.038Z,98192.91
2023-01-12T16:27:34.372Z,98190.09
2023-01-12T16:30:00.926Z,98195.53
2023-01-12T16:32:27.803Z,98188.47
2023-01-12T16:34:54.280Z,98184.19
2023-01-12T16:37:22.973Z,98189.44
2023-01-12T16:39:49.796Z,98181.84
2023-01-12T16:42:16.371Z,98191.81
2023-01-12T16:44:42.818Z,98186.09
2023-01-12T16:47:14.937Z,98171.50
2023-01-12T16:49:42.173Z,98172.88
2023-01-12T16:52:11.259Z,98161.09
2023-01-12T16:54:42.317Z,98180.94
2023-01-12T16:57:13.409Z,98166.97
2023-01-12T16:59:40.528Z,98170.94
2023-01-12T17:02:10.400Z,98173.41
2023-01-12T17:04:38.136Z,98166.16
2023-01-12T17:07:06.450Z,98172.66
2023-01-12T17:09:37.400Z,98157.72
2023-01-12T17:12:04.666Z,98154.09
2023-01-12T17:14:34.445Z,98140.31
2023-01-12T17:17:03.877Z,98152.03
2023-01-12T17:19:32.128Z,98140.69
2023-01-12T17:22:01.391Z,98145.13
2023-01-12T17:24:29.610Z,98168.63
2023-01-12T17:26:57.245Z,98155.72
2023-01-12T17:29:25.480Z,98154.91
2023-01-12T17:31:53.819Z,98151.19
2023-01-12T17:34:21.311Z,98141.41
2023-01-12T17:36:47.855Z,98137.09
2023-01-12T17:39:17.193Z,98145.56
2023-01-12T17:42:02.285Z,98138.81
2023-01-12T17:44:28.879Z,98144.06
2023-01-12T17:46:55.352Z,98142.25
2023-01-12T17:49:22.132Z,98146.50
2023-01-12T17:51:48.676Z,98144.69
2023-01-12T17:54:15.920Z,98145.50
2023-01-12T17:56:42.535Z,98130.38
2023-01-12T17:59:13.114Z,98118.22
2023-01-12T18:01:41.662Z,98126.22
2023-01-12T18:04:08.882Z,98115.97
2023-01-12T18:06:35.424Z,98124.88
2023-01-12T18:09:02.153Z,98126.47
2023-01-12T18:11:31.016Z,98130.13
2023-01-12T18:13:58.348Z,98131.53
2023-01-12T18:16:25.809Z,98134.28
2023-01-12T18:18:53.513Z,98137.72
2023-01-12T18:21:22.370Z,98131.59
2023-01-12T18:23:49.858Z,98127.31
2023-01-12T18:26:37.637Z,98139.41
2023-01-12T18:29:05.698Z,98129.72
2023-01-12T18:31:33.558Z,98133.16
2023-01-12T18:34:10.172Z,98136.97
2023-01-12T18:36:39.451Z,98139.03
2023-01-12T18:39:08.049Z,98131.03
2023-01-12T18:41:54.440Z,98128.34
2023-01-12T18:44:21.652Z,98136.88
2023-01-12T18:47:06.860Z,98129.84
2023-01-12T18:49:36.611Z,98122.59
2023-01-12T18:52:22.586Z,98129.47
2023-01-12T18:54:51.591Z,98129.84
2023-01-12T18:57:20.962Z,98136.09
2023-01-12T18:59:49.622Z,98125.84
2023-01-12T19:02:18.049Z,98129.44
2023-01-12T19:04:52.493Z,98125.59
2023-01-12T19:07:33.363Z,98128.78
2023-01-12T19:10:00.233Z,98128.97
2023-01-12T19:12:27.292Z,98120.53
2023-01-12T19:15:12.570Z,98131.41
2023-01-12T19:17:41.806Z,98109.94
2023-01-12T19:20:14.288Z,98125.72
2023-01-12T19:22:59.439Z,98122.47
2023-01-12T19:25:44.767Z,98118.03
2023-01-12T19:28:32.851Z,98118.59
2023-01-12T19:31:01.148Z,98092.34
2023-01-12T19:33:28.634Z,98109.78
2023-01-12T19:35:55.251Z,98102.25
2023-01-12T19:38:21.812Z,98089.56
2023-01-12T19:40:53.522Z,98086.13
2023-01-12T19:43:26.088Z,98110.03
2023-01-12T19:46:01.215Z,98085.13
2023-01-12T19:48:27.746Z,98096.69
2023-01-12T19:50:54.466Z,98086.97
2023-01-12T19:53:28.029Z,98091.44
2023-01-12T19:55:54.677Z,98085.44
2023-01-12T19:58:22.097Z,98083.78
2023-01-12T20:00:49.767Z,98086.63
2023-01-12T20:03:21.546Z,98089.81
2023-01-12T20:05:52.362Z,98081.16
2023-01-12T20:08:24.211Z,98083.78
2023-01-12T20:10:58.911Z,98079.78
2023-01-12T20:13:26.173Z,98078.16
2023-01-12T20:15:54.055Z,98071.53
2023-01-12T20:18:20.791Z,98083.25
2023-01-12T20:20:47.455Z,98092.13
2023-01-12T20:23:14.904Z,98083.06
2023-01-12T20:25:42.544Z,98071.28
2023-01-12T20:28:12.012Z,98082.84
2023-01-12T20:30:41.237Z,98074.78
2023-01-12T20:33:08.135Z,98075.16
2023-01-12T20:35:35.452Z,98075.16
2023-01-12T20:38:06.594Z,98060.84
2023-01-12T20:40:33.259Z,98074.00
2023-01-12T20:42:59.998Z,98061.00
2023-01-12T20:45:26.634Z,98074.72
2023-01-12T20:47:53.108Z,98062.59
2023-01-12T20:50:19.694Z,98052.13
2023-01-12T20:52:50.927Z,98056.78
2023-01-12T20:55:17.464Z,98054.50
2023-01-12T20:57:44.707Z,98058.31
2023-01-12T21:00:13.216Z,98061.94
2023-01-12T21:02:40.600Z,98053.69
2023-01-12T21:05:08.945Z,98063.41
2023-01-12T21:07:35.995Z,98054.50
2023-01-12T21:10:02.810Z,98054.28
2023-01-12T21:12:29.342Z,98059.53
2023-01-12T21:14:55.903Z,98050.63
2023-01-12T21:17:22.405Z,98045.38
2023-01-12T21:19:49.004Z,98034.88
2023-01-12T21:22:15.703Z,98043.94
2023-01-12T21:24:42.666Z,98034.66
2023-01-12T21:27:09.222Z,98034.09
2023-01-12T21:29:35.788Z,98036.38
2023-01-12T21:32:02.307Z,98035.56
2023-01-12T21:34:28.863Z,98040.81
2023-01-12T21:36:55.406Z,98026.06
2023-01-12T21:39:21.883Z,98023.00
2023-01-12T21:42:08.001Z,98029.06
2023-01-12T21:44:34.592Z,98027.22
2023-01-12T21:47:01.029Z,98033.69
2023-01-12T21:49:27.499Z,98029.84
2023-01-12T21:51:54.002Z,98026.41
2023-01-12T21:54:20.500Z,98026.41
2023-01-12T21:56:46.965Z,98026.06
2023-01-12T21:59:13.596Z,98025.25
2023-01-12T22:01:40.240Z,98020.97
2023-01-12T22:04:06.767Z,98023.19
2023-01-12T22:06:33.263Z,98023.34
2023-01-12T22:08:59.735Z,98018.75
2023-01-12T22:11:26.309Z,98016.69
2023-01-12T22:13:52.772Z,98013.66
2023-01-12T22:16:19.366Z,98011.66
2023-01-12T22:18:50.148Z,98014.28
2023-01-12T22:21:19.119Z,98015.91
2023-01-12T22:23:46.004Z,98021.97
2023-01-12T22:26:14.198Z,98016.16
2023-01-12T22:28:43.606Z,98012.97
2023-01-12T22:31:19.245Z,98016.47
2023-01-12T22:33:47.981Z,98020.53
2023-01-12T22:36:14.793Z,98017.53
2023-01-12T22:38:42.192Z,98015.50
2023-01-12T22:41:10.619Z,98000.56
2023-01-12T22:43:44.619Z,98019.59
2023-01-12T22:46:23.071Z,98002.00
2023-01-12T22:48:55.251Z,98009.88
2023-01-12T22:51:26.594Z,98003.19
2023-01-12T22:53:55.433Z,98010.63
2023-01-12T22:56:22.127Z,98013.66
2023-01-12T22:58:51.698Z,97994.25
2023-01-12T23:01:19.754Z,97992.63
2023-01-12T23:03:48.251Z,97998.69
2023-01-12T23:06:16.824Z,97995.44
2023-01-12T23:08:44.638Z,97996.06
2023-01-12T23:11:14.298Z,97991.41
2023-01-12T23:13:42.234Z,97985.72
2023-01-12T23:16:10.243Z,97994.06
2023-01-12T23:18:38.953Z,97988.78
2023-01-12T23:21:21.180Z,97976.22
2023-01-12T23:23:53.236Z,97975.47
2023-01-12T23:26:22.927Z,97972.84
2023-01-12T23:28:55.982Z,97984.56
2023-01-12T23:31:26.020Z,97986.38
2023-01-12T23:33:52.910Z,97981.72
2023-01-12T23:36:22.465Z,97981.91
2023-01-12T23:38:53.871Z,97989.00
2023-01-12T23:41:23.321Z,97977.91
2023-01-12T23:43:51.443Z,97979.72
2023-01-12T23:46:23.425Z,97981.00
2023-01-12T23:48:51.488Z,97976.53
2023-01-12T23:51:18.455Z,97971.06
2023-01-12T23:53:45.343Z,97971.47
2023-01-12T23:56:14.080Z,97963.19
2023-01-12T23:58:41.619Z,97961.56
